sensor_id;sensor_type;location;lat;lon;timestamp;P1;durP1;ratioP1;P2;durP2;ratioP2
18194;SDS011;9223;50.988;3.162;2022-10-16T00:01:05;1.80;;;1.38;;
18194;SDS011;9223;50.988;3.162;2022-10-16T00:07:08;2.05;;;0.95;;
18194;SDS011;9223;50.988;3.162;2022-10-16T00:13:12;0.90;;;0.90;;
18194;SDS011;9223;50.988;3.162;2022-10-16T00:19:19;1.80;;;1.30;;
18194;SDS011;9223;50.988;3.162;2022-10-16T00:25:23;1.38;;;0.88;;
18194;SDS011;9223;50.988;3.162;2022-10-16T00:31:26;1.30;;;1.17;;
18194;SDS011;9223;50.988;3.162;2022-10-16T00:37:32;1.02;;;1.00;;
18194;SDS011;9223;50.988;3.162;2022-10-16T00:43:37;1.30;;;1.10;;
18194;SDS011;9223;50.988;3.162;2022-10-16T00:49:40;1.88;;;1.25;;
18194;SDS011;9223;50.988;3.162;2022-10-16T00:55:45;2.42;;;1.08;;
18194;SDS011;9223;50.988;3.162;2022-10-16T01:01:49;1.90;;;1.70;;
18194;SDS011;9223;50.988;3.162;2022-10-16T01:07:54;2.50;;;1.30;;
18194;SDS011;9223;50.988;3.162;2022-10-16T01:14:02;1.05;;;0.95;;
18194;SDS011;9223;50.988;3.162;2022-10-16T01:20:10;1.55;;;0.90;;
18194;SDS011;9223;50.988;3.162;2022-10-16T01:26:18;1.00;;;0.90;;
18194;SDS011;9223;50.988;3.162;2022-10-16T01:32:26;0.90;;;0.88;;
18194;SDS011;9223;50.988;3.162;2022-10-16T01:38:33;1.20;;;0.80;;
18194;SDS011;9223;50.988;3.162;2022-10-16T01:44:37;1.58;;;0.85;;
18194;SDS011;9223;50.988;3.162;2022-10-16T01:50:44;1.25;;;0.80;;
18194;SDS011;9223;50.988;3.162;2022-10-16T01:56:48;3.00;;;0.98;;
18194;SDS011;9223;50.988;3.162;2022-10-16T02:02:52;1.08;;;0.90;;
18194;SDS011;9223;50.988;3.162;2022-10-16T02:08:57;1.50;;;0.85;;
18194;SDS011;9223;50.988;3.162;2022-10-16T02:15:02;1.00;;;0.90;;
18194;SDS011;9223;50.988;3.162;2022-10-16T02:21:07;1.42;;;0.90;;
18194;SDS011;9223;50.988;3.162;2022-10-16T02:27:17;2.15;;;1.17;;
18194;SDS011;9223;50.988;3.162;2022-10-16T02:33:23;4.13;;;1.33;;
18194;SDS011;9223;50.988;3.162;2022-10-16T02:39:27;2.05;;;1.10;;
18194;SDS011;9223;50.988;3.162;2022-10-16T02:45:33;1.65;;;1.13;;
18194;SDS011;9223;50.988;3.162;2022-10-16T02:51:36;2.03;;;0.90;;
18194;SDS011;9223;50.988;3.162;2022-10-16T02:57:40;1.10;;;0.93;;
18194;SDS011;9223;50.988;3.162;2022-10-16T03:03:45;1.27;;;0.80;;
18194;SDS011;9223;50.988;3.162;2022-10-16T03:09:48;1.90;;;1.08;;
18194;SDS011;9223;50.988;3.162;2022-10-16T03:15:52;0.98;;;0.88;;
18194;SDS011;9223;50.988;3.162;2022-10-16T03:21:56;1.73;;;0.93;;
18194;SDS011;9223;50.988;3.162;2022-10-16T03:28:00;1.90;;;1.00;;
18194;SDS011;9223;50.988;3.162;2022-10-16T03:34:04;0.90;;;0.88;;
18194;SDS011;9223;50.988;3.162;2022-10-16T03:40:09;0.90;;;0.73;;
18194;SDS011;9223;50.988;3.162;2022-10-16T03:46:13;1.40;;;1.00;;
18194;SDS011;9223;50.988;3.162;2022-10-16T03:52:16;2.28;;;1.00;;
18194;SDS011;9223;50.988;3.162;2022-10-16T03:58:26;0.93;;;0.82;;
18194;SDS011;9223;50.988;3.162;2022-10-16T04:04:29;1.35;;;1.02;;
18194;SDS011;9223;50.988;3.162;2022-10-16T04:10:33;1.23;;;0.77;;
18194;SDS011;9223;50.988;3.162;2022-10-16T04:16:37;2.60;;;0.93;;
18194;SDS011;9223;50.988;3.162;2022-10-16T04:22:41;1.95;;;1.27;;
18194;SDS011;9223;50.988;3.162;2022-10-16T04:28:45;2.03;;;1.50;;
18194;SDS011;9223;50.988;3.162;2022-10-16T04:34:50;2.58;;;1.48;;
18194;SDS011;9223;50.988;3.162;2022-10-16T04:40:56;1.60;;;1.50;;
18194;SDS011;9223;50.988;3.162;2022-10-16T04:46:59;2.28;;;1.33;;
18194;SDS011;9223;50.988;3.162;2022-10-16T04:53:04;1.48;;;1.30;;
18194;SDS011;9223;50.988;3.162;2022-10-16T04:59:08;3.08;;;2.05;;
18194;SDS011;9223;50.988;3.162;2022-10-16T05:05:12;2.72;;;1.80;;
18194;SDS011;9223;50.988;3.162;2022-10-16T05:11:17;3.38;;;2.35;;
18194;SDS011;9223;50.988;3.162;2022-10-16T05:17:20;3.60;;;2.25;;
18194;SDS011;9223;50.988;3.162;2022-10-16T05:23:24;4.93;;;2.35;;
18194;SDS011;9223;50.988;3.162;2022-10-16T05:29:29;2.63;;;2.20;;
18194;SDS011;9223;50.988;3.162;2022-10-16T05:35:33;5.05;;;2.28;;
18194;SDS011;9223;50.988;3.162;2022-10-16T05:41:37;3.60;;;2.05;;
18194;SDS011;9223;50.988;3.162;2022-10-16T05:47:42;2.88;;;1.67;;
18194;SDS011;9223;50.988;3.162;2022-10-16T05:53:45;1.95;;;1.40;;
18194;SDS011;9223;50.988;3.162;2022-10-16T05:59:49;3.58;;;1.20;;
18194;SDS011;9223;50.988;3.162;2022-10-16T06:05:53;4.45;;;1.40;;
18194;SDS011;9223;50.988;3.162;2022-10-16T06:11:57;1.98;;;1.02;;
18194;SDS011;9223;50.988;3.162;2022-10-16T06:18:00;1.92;;;1.25;;
18194;SDS011;9223;50.988;3.162;2022-10-16T06:24:06;2.50;;;1.10;;
18194;SDS011;9223;50.988;3.162;2022-10-16T06:30:09;4.10;;;1.05;;
18194;SDS011;9223;50.988;3.162;2022-10-16T06:36:13;1.13;;;0.80;;
18194;SDS011;9223;50.988;3.162;2022-10-16T06:42:18;3.00;;;1.35;;
18194;SDS011;9223;50.988;3.162;2022-10-16T06:48:22;3.13;;;1.30;;
18194;SDS011;9223;50.988;3.162;2022-10-16T06:54:26;2.42;;;1.20;;
18194;SDS011;9223;50.988;3.162;2022-10-16T07:00:31;4.18;;;1.52;;
18194;SDS011;9223;50.988;3.162;2022-10-16T07:06:34;4.88;;;2.00;;
18194;SDS011;9223;50.988;3.162;2022-10-16T07:12:38;4.90;;;1.27;;
18194;SDS011;9223;50.988;3.162;2022-10-16T07:18:43;2.47;;;1.35;;
18194;SDS011;9223;50.988;3.162;2022-10-16T07:24:47;2.33;;;1.33;;
18194;SDS011;9223;50.988;3.162;2022-10-16T07:30:53;1.42;;;1.30;;
18194;SDS011;9223;50.988;3.162;2022-10-16T07:36:57;2.47;;;1.30;;
18194;SDS011;9223;50.988;3.162;2022-10-16T07:43:01;4.40;;;1.40;;
18194;SDS011;9223;50.988;3.162;2022-10-16T07:49:06;4.50;;;1.40;;
18194;SDS011;9223;50.988;3.162;2022-10-16T07:55:11;2.47;;;1.13;;
18194;SDS011;9223;50.988;3.162;2022-10-16T08:01:15;4.90;;;1.20;;
18194;SDS011;9223;50.988;3.162;2022-10-16T08:07:19;3.53;;;1.60;;
18194;SDS011;9223;50.988;3.162;2022-10-16T08:13:24;2.70;;;1.17;;
18194;SDS011;9223;50.988;3.162;2022-10-16T08:19:27;3.03;;;1.00;;
18194;SDS011;9223;50.988;3.162;2022-10-16T08:25:34;1.73;;;0.90;;
18194;SDS011;9223;50.988;3.162;2022-10-16T08:31:39;2.92;;;1.50;;
18194;SDS011;9223;50.988;3.162;2022-10-16T08:37:42;4.20;;;1.40;;
18194;SDS011;9223;50.988;3.162;2022-10-16T08:43:53;1.85;;;1.20;;
18194;SDS011;9223;50.988;3.162;2022-10-16T08:50:00;3.40;;;1.30;;
18194;SDS011;9223;50.988;3.162;2022-10-16T08:56:05;2.90;;;1.15;;
18194;SDS011;9223;50.988;3.162;2022-10-16T09:02:16;4.25;;;1.40;;
18194;SDS011;9223;50.988;3.162;2022-10-16T09:08:30;3.85;;;1.20;;
18194;SDS011;9223;50.988;3.162;2022-10-16T09:14:44;3.97;;;1.02;;
18194;SDS011;9223;50.988;3.162;2022-10-16T09:20:51;2.22;;;1.02;;
18194;SDS011;9223;50.988;3.162;2022-10-16T09:26:56;2.78;;;0.98;;
18194;SDS011;9223;50.988;3.162;2022-10-16T09:33:00;2.53;;;1.10;;
18194;SDS011;9223;50.988;3.162;2022-10-16T09:39:04;4.03;;;1.20;;
18194;SDS011;9223;50.988;3.162;2022-10-16T09:45:20;4.53;;;1.30;;
18194;SDS011;9223;50.988;3.162;2022-10-16T09:51:25;4.60;;;1.20;;
18194;SDS011;9223;50.988;3.162;2022-10-16T09:57:29;3.08;;;1.00;;
18194;SDS011;9223;50.988;3.162;2022-10-16T10:03:37;4.85;;;1.30;;
18194;SDS011;9223;50.988;3.162;2022-10-16T10:09:42;2.92;;;1.55;;
18194;SDS011;9223;50.988;3.162;2022-10-16T10:15:47;4.53;;;1.33;;
18194;SDS011;9223;50.988;3.162;2022-10-16T10:21:52;5.78;;;1.63;;
18194;SDS011;9223;50.988;3.162;2022-10-16T10:27:59;5.10;;;1.48;;
18194;SDS011;9223;50.988;3.162;2022-10-16T10:34:05;1.88;;;1.15;;
18194;SDS011;9223;50.988;3.162;2022-10-16T10:40:18;5.03;;;1.20;;
18194;SDS011;9223;50.988;3.162;2022-10-16T10:46:35;2.80;;;1.27;;
18194;SDS011;9223;50.988;3.162;2022-10-16T10:52:50;7.32;;;1.48;;
18194;SDS011;9223;50.988;3.162;2022-10-16T10:59:07;3.72;;;1.23;;
18194;SDS011;9223;50.988;3.162;2022-10-16T11:11:41;4.68;;;1.30;;
18194;SDS011;9223;50.988;3.162;2022-10-16T11:17:48;6.63;;;1.52;;
18194;SDS011;9223;50.988;3.162;2022-10-16T11:23:53;4.20;;;1.33;;
18194;SDS011;9223;50.988;3.162;2022-10-16T11:29:59;11.20;;;2.60;;
18194;SDS011;9223;50.988;3.162;2022-10-16T11:36:12;5.80;;;1.40;;
18194;SDS011;9223;50.988;3.162;2022-10-16T11:42:19;6.22;;;1.08;;
18194;SDS011;9223;50.988;3.162;2022-10-16T11:48:26;5.78;;;1.50;;
18194;SDS011;9223;50.988;3.162;2022-10-16T11:54:34;5.65;;;1.40;;
18194;SDS011;9223;50.988;3.162;2022-10-16T12:00:40;4.18;;;1.55;;
18194;SDS011;9223;50.988;3.162;2022-10-16T12:06:45;4.18;;;1.20;;
18194;SDS011;9223;50.988;3.162;2022-10-16T12:12:52;3.03;;;1.00;;
18194;SDS011;9223;50.988;3.162;2022-10-16T12:19:11;3.10;;;1.67;;
18194;SDS011;9223;50.988;3.162;2022-10-16T12:25:22;5.65;;;1.60;;
18194;SDS011;9223;50.988;3.162;2022-10-16T12:31:35;4.60;;;1.50;;
18194;SDS011;9223;50.988;3.162;2022-10-16T12:38:03;2.83;;;1.20;;
18194;SDS011;9223;50.988;3.162;2022-10-16T12:44:20;3.17;;;0.85;;
18194;SDS011;9223;50.988;3.162;2022-10-16T12:50:27;4.07;;;1.40;;
18194;SDS011;9223;50.988;3.162;2022-10-16T12:56:35;3.97;;;1.23;;
18194;SDS011;9223;50.988;3.162;2022-10-16T13:09:15;4.55;;;1.35;;
18194;SDS011;9223;50.988;3.162;2022-10-16T13:15:24;2.58;;;0.98;;
18194;SDS011;9223;50.988;3.162;2022-10-16T13:21:32;1.98;;;1.42;;
18194;SDS011;9223;50.988;3.162;2022-10-16T13:27:40;1.50;;;0.88;;
18194;SDS011;9223;50.988;3.162;2022-10-16T13:33:45;4.60;;;1.20;;
18194;SDS011;9223;50.988;3.162;2022-10-16T13:40:02;2.70;;;1.38;;
18194;SDS011;9223;50.988;3.162;2022-10-16T13:46:10;3.25;;;1.30;;
18194;SDS011;9223;50.988;3.162;2022-10-16T13:52:16;13.48;;;2.33;;
18194;SDS011;9223;50.988;3.162;2022-10-16T13:58:20;4.03;;;1.20;;
18194;SDS011;9223;50.988;3.162;2022-10-16T14:04:24;1.10;;;0.65;;
18194;SDS011;9223;50.988;3.162;2022-10-16T14:10:31;2.75;;;0.70;;
18194;SDS011;9223;50.988;3.162;2022-10-16T14:16:35;2.25;;;0.88;;
18194;SDS011;9223;50.988;3.162;2022-10-16T14:22:41;3.42;;;1.38;;
18194;SDS011;9223;50.988;3.162;2022-10-16T14:28:45;3.10;;;1.15;;
18194;SDS011;9223;50.988;3.162;2022-10-16T14:34:52;1.63;;;1.33;;
18194;SDS011;9223;50.988;3.162;2022-10-16T14:40:58;2.58;;;1.27;;
18194;SDS011;9223;50.988;3.162;2022-10-16T14:47:07;2.10;;;0.90;;
18194;SDS011;9223;50.988;3.162;2022-10-16T14:53:11;3.28;;;0.63;;
18194;SDS011;9223;50.988;3.162;2022-10-16T14:59:17;1.55;;;0.60;;
18194;SDS011;9223;50.988;3.162;2022-10-16T15:05:22;1.45;;;0.70;;
18194;SDS011;9223;50.988;3.162;2022-10-16T15:11:27;2.97;;;1.10;;
18194;SDS011;9223;50.988;3.162;2022-10-16T15:17:32;3.10;;;0.98;;
18194;SDS011;9223;50.988;3.162;2022-10-16T15:23:35;2.10;;;1.00;;
18194;SDS011;9223;50.988;3.162;2022-10-16T15:29:40;2.85;;;1.67;;
18194;SDS011;9223;50.988;3.162;2022-10-16T15:35:47;2.42;;;1.40;;
18194;SDS011;9223;50.988;3.162;2022-10-16T15:41:50;2.42;;;1.17;;
18194;SDS011;9223;50.988;3.162;2022-10-16T15:47:54;2.50;;;1.52;;
18194;SDS011;9223;50.988;3.162;2022-10-16T15:53:59;6.40;;;1.23;;
18194;SDS011;9223;50.988;3.162;2022-10-16T16:00:04;3.85;;;3.10;;
18194;SDS011;9223;50.988;3.162;2022-10-16T16:06:12;4.03;;;1.90;;
18194;SDS011;9223;50.988;3.162;2022-10-16T16:12:19;5.20;;;2.25;;
18194;SDS011;9223;50.988;3.162;2022-10-16T16:18:23;3.35;;;2.03;;
18194;SDS011;9223;50.988;3.162;2022-10-16T16:24:26;5.65;;;4.75;;
18194;SDS011;9223;50.988;3.162;2022-10-16T16:30:31;3.95;;;2.35;;
18194;SDS011;9223;50.988;3.162;2022-10-16T16:36:35;3.70;;;2.08;;
18194;SDS011;9223;50.988;3.162;2022-10-16T16:42:40;6.85;;;2.90;;
18194;SDS011;9223;50.988;3.162;2022-10-16T16:48:45;5.22;;;3.65;;
18194;SDS011;9223;50.988;3.162;2022-10-16T16:54:51;4.15;;;3.35;;
18194;SDS011;9223;50.988;3.162;2022-10-16T17:00:55;8.98;;;5.95;;
18194;SDS011;9223;50.988;3.162;2022-10-16T17:07:21;7.97;;;4.70;;
18194;SDS011;9223;50.988;3.162;2022-10-16T17:13:27;5.07;;;3.47;;
18194;SDS011;9223;50.988;3.162;2022-10-16T17:19:31;4.35;;;3.50;;
18194;SDS011;9223;50.988;3.162;2022-10-16T17:25:37;4.72;;;3.80;;
18194;SDS011;9223;50.988;3.162;2022-10-16T17:31:40;9.40;;;6.15;;
18194;SDS011;9223;50.988;3.162;2022-10-16T17:37:44;17.27;;;10.85;;
18194;SDS011;9223;50.988;3.162;2022-10-16T17:43:49;11.18;;;7.57;;
18194;SDS011;9223;50.988;3.162;2022-10-16T17:49:53;19.75;;;17.38;;
18194;SDS011;9223;50.988;3.162;2022-10-16T17:56:01;9.68;;;8.15;;
18194;SDS011;9223;50.988;3.162;2022-10-16T18:02:06;7.10;;;6.15;;
18194;SDS011;9223;50.988;3.162;2022-10-16T18:08:09;11.35;;;6.03;;
18194;SDS011;9223;50.988;3.162;2022-10-16T18:14:14;6.38;;;5.28;;
18194;SDS011;9223;50.988;3.162;2022-10-16T18:20:19;6.60;;;5.47;;
18194;SDS011;9223;50.988;3.162;2022-10-16T18:26:23;7.50;;;5.53;;
18194;SDS011;9223;50.988;3.162;2022-10-16T18:32:27;10.25;;;5.95;;
18194;SDS011;9223;50.988;3.162;2022-10-16T18:38:32;9.45;;;5.88;;
18194;SDS011;9223;50.988;3.162;2022-10-16T18:44:36;6.38;;;5.00;;
18194;SDS011;9223;50.988;3.162;2022-10-16T18:50:40;6.35;;;5.30;;
18194;SDS011;9223;50.988;3.162;2022-10-16T18:56:45;8.63;;;5.32;;
18194;SDS011;9223;50.988;3.162;2022-10-16T19:02:48;6.20;;;4.75;;
18194;SDS011;9223;50.988;3.162;2022-10-16T19:08:52;5.55;;;4.57;;
18194;SDS011;9223;50.988;3.162;2022-10-16T19:14:57;4.72;;;4.32;;
18194;SDS011;9223;50.988;3.162;2022-10-16T19:21:01;5.43;;;3.53;;
18194;SDS011;9223;50.988;3.162;2022-10-16T19:27:05;5.70;;;3.80;;
18194;SDS011;9223;50.988;3.162;2022-10-16T19:33:09;4.25;;;3.85;;
18194;SDS011;9223;50.988;3.162;2022-10-16T19:39:13;5.30;;;4.60;;
18194;SDS011;9223;50.988;3.162;2022-10-16T19:45:17;6.65;;;4.43;;
18194;SDS011;9223;50.988;3.162;2022-10-16T19:51:23;6.35;;;4.70;;
18194;SDS011;9223;50.988;3.162;2022-10-16T19:57:27;4.63;;;4.22;;
18194;SDS011;9223;50.988;3.162;2022-10-16T20:03:30;6.13;;;4.40;;
18194;SDS011;9223;50.988;3.162;2022-10-16T20:09:35;3.80;;;3.40;;
18194;SDS011;9223;50.988;3.162;2022-10-16T20:15:38;4.72;;;4.22;;
18194;SDS011;9223;50.988;3.162;2022-10-16T20:21:42;4.65;;;4.25;;
18194;SDS011;9223;50.988;3.162;2022-10-16T20:27:50;5.03;;;4.30;;
18194;SDS011;9223;50.988;3.162;2022-10-16T20:33:54;4.80;;;4.00;;
18194;SDS011;9223;50.988;3.162;2022-10-16T20:39:58;5.18;;;4.68;;
18194;SDS011;9223;50.988;3.162;2022-10-16T20:46:04;13.98;;;7.65;;
18194;SDS011;9223;50.988;3.162;2022-10-16T20:52:10;23.40;;;9.57;;
18194;SDS011;9223;50.988;3.162;2022-10-16T20:58:14;6.13;;;4.63;;
18194;SDS011;9223;50.988;3.162;2022-10-16T21:04:21;44.58;;;18.98;;
18194;SDS011;9223;50.988;3.162;2022-10-16T21:10:25;11.95;;;6.45;;
18194;SDS011;9223;50.988;3.162;2022-10-16T21:16:29;23.40;;;12.27;;
18194;SDS011;9223;50.988;3.162;2022-10-16T21:22:34;6.88;;;4.28;;
18194;SDS011;9223;50.988;3.162;2022-10-16T21:28:38;16.23;;;9.50;;
18194;SDS011;9223;50.988;3.162;2022-10-16T21:34:42;15.55;;;8.20;;
18194;SDS011;9223;50.988;3.162;2022-10-16T21:40:46;34.60;;;15.70;;
18194;SDS011;9223;50.988;3.162;2022-10-16T21:46:50;21.30;;;10.88;;
18194;SDS011;9223;50.988;3.162;2022-10-16T21:52:53;4.40;;;4.00;;
18194;SDS011;9223;50.988;3.162;2022-10-16T21:58:58;5.72;;;4.80;;
18194;SDS011;9223;50.988;3.162;2022-10-16T22:05:02;5.97;;;5.00;;
18194;SDS011;9223;50.988;3.162;2022-10-16T22:11:06;7.07;;;4.93;;
18194;SDS011;9223;50.988;3.162;2022-10-16T22:17:14;4.82;;;4.32;;
18194;SDS011;9223;50.988;3.162;2022-10-16T22:23:20;6.10;;;4.93;;
18194;SDS011;9223;50.988;3.162;2022-10-16T22:29:25;6.00;;;5.40;;
18194;SDS011;9223;50.988;3.162;2022-10-16T22:35:34;7.55;;;5.22;;
18194;SDS011;9223;50.988;3.162;2022-10-16T22:41:38;5.75;;;4.97;;
18194;SDS011;9223;50.988;3.162;2022-10-16T22:47:44;5.72;;;4.78;;
18194;SDS011;9223;50.988;3.162;2022-10-16T22:53:51;5.18;;;4.68;;
18194;SDS011;9223;50.988;3.162;2022-10-16T22:59:55;6.65;;;5.07;;
18194;SDS011;9223;50.988;3.162;2022-10-16T23:06:01;5.45;;;4.88;;
18194;SDS011;9223;50.988;3.162;2022-10-16T23:12:07;8.13;;;4.60;;
18194;SDS011;9223;50.988;3.162;2022-10-16T23:18:14;5.57;;;4.80;;
18194;SDS011;9223;50.988;3.162;2022-10-16T23:24:18;7.70;;;5.00;;
18194;SDS011;9223;50.988;3.162;2022-10-16T23:30:31;5.75;;;4.85;;
18194;SDS011;9223;50.988;3.162;2022-10-16T23:36:39;6.57;;;5.35;;
18194;SDS011;9223;50.988;3.162;2022-10-16T23:42:48;5.30;;;4.75;;
18194;SDS011;9223;50.988;3.162;2022-10-16T23:48:54;5.68;;;4.93;;
18194;SDS011;9223;50.988;3.162;2022-10-16T23:54:58;7.47;;;5.22;;
